createdAt,value
2019-02-15T00:03:21.380Z,5.41
2019-02-15T00:05:51.069Z,5.70
2019-02-15T00:08:20.701Z,5.55
2019-02-15T00:10:50.342Z,5.64
2019-02-15T00:13:20.013Z,5.50
2019-02-15T00:15:49.663Z,5.30
2019-02-15T00:21:33.475Z,5.05
2019-02-15T00:24:03.220Z,5.00
2019-02-15T00:26:32.837Z,5.21
2019-02-15T00:29:02.458Z,5.24
2019-02-15T00:31:32.113Z,5.14
2019-02-15T00:34:01.737Z,5.16
2019-02-15T00:36:31.366Z,5.22
2019-02-15T00:39:01.003Z,5.17
2019-02-15T00:41:30.609Z,4.99
2019-02-15T00:44:00.221Z,5.09
2019-02-15T00:46:48.651Z,5.20
2019-02-15T00:49:39.214Z,5.37
2019-02-15T00:52:17.262Z,5.34
2019-02-15T00:55:05.988Z,5.40
2019-02-15T01:00:49.994Z,5.70
2019-02-15T01:06:46.807Z,5.33
2019-02-15T01:12:42.203Z,5.26
2019-02-15T01:15:12.267Z,5.46
2019-02-15T01:17:41.879Z,5.27
2019-02-15T01:20:11.520Z,5.14
2019-02-15T01:22:41.112Z,5.12
2019-02-15T01:25:10.907Z,5.08
2019-02-15T01:28:01.751Z,5.04
2019-02-15T01:30:50.515Z,5.13
2019-02-15T01:33:40.989Z,5.24
2019-02-15T01:36:29.376Z,5.36
2019-02-15T01:45:18.097Z,5.63
2019-02-15T01:47:49.436Z,5.62
2019-02-15T01:50:19.036Z,5.72
2019-02-15T01:52:48.650Z,5.73
2019-02-15T01:55:18.318Z,5.65
2019-02-15T01:57:47.911Z,5.56
2019-02-15T02:03:06.298Z,5.56
2019-02-15T02:05:35.920Z,5.55
2019-02-15T02:10:56.273Z,5.47
2019-02-15T02:13:26.183Z,5.36
2019-02-15T02:15:55.788Z,5.52
2019-02-15T02:18:25.438Z,5.54
2019-02-15T02:20:55.048Z,5.50
2019-02-15T02:23:24.651Z,5.47
2019-02-15T02:25:54.315Z,5.51
2019-02-15T02:28:23.936Z,5.56
2019-02-15T02:30:53.562Z,5.56
2019-02-15T02:33:23.196Z,5.67
2019-02-15T02:35:52.829Z,5.63
2019-02-15T02:38:22.429Z,5.64
2019-02-15T02:40:52.075Z,5.77
2019-02-15T02:43:21.659Z,5.82
2019-02-15T02:45:51.263Z,6.06
2019-02-15T02:48:20.915Z,6.13
2019-02-15T02:50:50.485Z,6.29
2019-02-15T02:53:20.103Z,6.29
2019-02-15T02:55:49.768Z,6.33
2019-02-15T02:58:19.394Z,6.34
2019-02-15T03:00:48.995Z,6.36
2019-02-15T03:03:18.652Z,6.28
2019-02-15T03:05:48.317Z,6.31
2019-02-15T03:08:17.976Z,6.03
2019-02-15T03:10:47.643Z,5.92
2019-02-15T03:13:17.254Z,5.65
2019-02-15T03:15:46.858Z,5.70
2019-02-15T03:18:16.530Z,5.68
2019-02-15T03:20:46.119Z,5.87
2019-02-15T03:23:15.691Z,5.64
2019-02-15T03:25:45.321Z,5.69
2019-02-15T03:28:14.916Z,5.46
2019-02-15T03:30:44.542Z,5.57
2019-02-15T03:33:14.240Z,5.53
2019-02-15T03:35:55.545Z,5.42
2019-02-15T03:38:43.965Z,5.46
2019-02-15T03:41:32.632Z,5.39
2019-02-15T03:44:02.304Z,5.51
2019-02-15T03:46:31.970Z,5.40
2019-02-15T03:49:01.566Z,5.24
2019-02-15T03:51:31.218Z,5.21
2019-02-15T03:54:00.791Z,5.05
2019-02-15T03:56:30.485Z,5.06
2019-02-15T03:59:02.476Z,5.03
2019-02-15T04:01:31.668Z,5.11
2019-02-15T04:04:01.342Z,4.99
2019-02-15T04:06:30.998Z,5.44
2019-02-15T04:09:00.582Z,4.98
2019-02-15T04:11:30.199Z,4.90
2019-02-15T04:13:59.856Z,4.83
2019-02-15T04:16:29.449Z,4.93
2019-02-15T04:18:59.092Z,5.11
2019-02-15T04:21:28.725Z,5.19
2019-02-15T04:23:58.358Z,5.10
2019-02-15T04:26:27.950Z,5.18
2019-02-15T04:28:57.598Z,5.23
2019-02-15T04:31:27.192Z,5.33
2019-02-15T04:33:56.794Z,5.40
2019-02-15T04:36:26.441Z,5.51
2019-02-15T04:38:56.019Z,5.54
2019-02-15T04:41:25.617Z,5.65
2019-02-15T05:00:57.086Z,5.77
2019-02-15T05:03:27.108Z,5.18
2019-02-15T05:05:56.707Z,4.75
2019-02-15T05:08:26.319Z,4.62
2019-02-15T05:10:55.970Z,4.52
2019-02-15T05:13:25.551Z,4.50
2019-02-15T05:15:55.204Z,4.70
2019-02-15T05:24:28.761Z,4.77
2019-02-15T05:26:58.385Z,4.52
2019-02-15T05:29:27.969Z,4.40
2019-02-15T05:31:57.641Z,4.35
2019-02-15T05:34:27.277Z,4.54
2019-02-15T05:36:56.877Z,4.63
2019-02-15T05:39:26.538Z,4.70
2019-02-15T05:41:56.150Z,4.75
2019-02-15T05:44:25.751Z,4.66
2019-02-15T05:46:55.460Z,4.39
2019-02-15T05:49:25.051Z,5.06
2019-02-15T05:51:54.628Z,4.60
2019-02-15T05:54:24.289Z,4.60
2019-02-15T05:56:53.920Z,4.76
2019-02-15T06:02:27.677Z,4.72
2019-02-15T06:07:46.207Z,5.09
2019-02-15T06:10:15.864Z,5.40
2019-02-15T06:12:45.506Z,5.40
2019-02-15T06:15:15.797Z,5.51
2019-02-15T06:17:46.480Z,5.35
2019-02-15T06:20:16.072Z,5.31
2019-02-15T06:22:45.750Z,5.22
2019-02-15T06:25:15.424Z,5.31
2019-02-15T06:27:45.024Z,5.43
2019-02-15T06:30:14.631Z,5.20
2019-02-15T06:32:44.282Z,5.18
2019-02-15T06:35:13.877Z,5.17
2019-02-15T06:37:43.523Z,5.22
2019-02-15T06:40:13.198Z,5.14
2019-02-15T06:42:42.774Z,5.41
2019-02-15T06:45:12.505Z,5.29
2019-02-15T06:47:42.151Z,4.99
2019-02-15T06:50:11.779Z,5.06
2019-02-15T06:52:41.343Z,4.91
2019-02-15T06:55:11.010Z,4.84
2019-02-15T06:57:40.657Z,4.69
2019-02-15T07:00:29.954Z,4.85
2019-02-15T07:03:18.439Z,4.82
2019-02-15T07:05:48.187Z,4.63
2019-02-15T07:08:17.789Z,4.47
2019-02-15T07:10:48.052Z,4.49
2019-02-15T07:13:17.746Z,4.63
2019-02-15T07:15:47.384Z,4.74
2019-02-15T07:18:16.992Z,4.63
2019-02-15T07:20:46.696Z,4.84
2019-02-15T07:23:16.327Z,5.10
2019-02-15T07:25:45.941Z,5.11
2019-02-15T07:28:15.663Z,4.96
2019-02-15T07:30:45.266Z,5.18
2019-02-15T07:33:14.897Z,5.36
2019-02-15T07:35:44.549Z,5.57
2019-02-15T07:38:14.139Z,5.92
2019-02-15T07:40:43.989Z,5.92
2019-02-15T07:43:13.614Z,5.99
2019-02-15T07:45:43.273Z,6.45
2019-02-15T07:48:12.823Z,6.04
2019-02-15T07:50:42.522Z,6.36
2019-02-15T07:53:12.163Z,6.90
2019-02-15T07:55:41.820Z,6.32
2019-02-15T07:58:11.474Z,6.25
2019-02-15T08:00:41.067Z,6.07
2019-02-15T08:03:10.673Z,5.76
2019-02-15T08:05:40.333Z,5.74
2019-02-15T08:08:09.949Z,6.01
2019-02-15T08:10:39.634Z,5.98
2019-02-15T08:13:09.278Z,5.78
2019-02-15T08:15:38.889Z,5.68
2019-02-15T08:18:08.535Z,5.73
2019-02-15T08:20:38.190Z,5.68
2019-02-15T08:23:07.786Z,6.00
2019-02-15T08:25:37.450Z,5.84
2019-02-15T08:28:07.116Z,5.63
2019-02-15T08:30:36.723Z,5.94
2019-02-15T08:33:06.316Z,5.64
2019-02-15T08:35:35.998Z,6.00
2019-02-15T08:38:05.630Z,5.64
2019-02-15T08:40:37.327Z,5.70
2019-02-15T08:46:00.877Z,5.66
2019-02-15T08:48:26.529Z,5.39
2019-02-15T08:50:56.134Z,5.30
2019-02-15T08:53:25.728Z,5.39
2019-02-15T08:55:55.369Z,5.47
2019-02-15T08:58:24.976Z,5.31
2019-02-15T09:00:54.576Z,5.31
2019-02-15T09:03:24.248Z,5.24
2019-02-15T09:05:53.832Z,4.76
2019-02-15T09:08:23.440Z,4.51
2019-02-15T09:10:53.094Z,4.50
2019-02-15T09:13:22.709Z,4.50
2019-02-15T09:15:52.315Z,4.65
2019-02-15T09:18:21.959Z,4.73
2019-02-15T09:20:51.571Z,4.74
2019-02-15T09:23:21.214Z,4.72
2019-02-15T09:25:50.866Z,4.87
2019-02-15T09:28:39.286Z,4.98
2019-02-15T09:31:09.037Z,5.08
2019-02-15T09:33:39.023Z,5.02
2019-02-15T09:36:08.682Z,5.12
2019-02-15T09:38:38.355Z,5.15
2019-02-15T09:41:07.948Z,5.19
2019-02-15T09:43:37.539Z,5.45
2019-02-15T09:46:07.329Z,5.23
2019-02-15T09:48:36.975Z,5.28
2019-02-15T09:51:06.640Z,5.15
2019-02-15T09:53:36.272Z,5.00
2019-02-15T09:56:05.933Z,5.23
2019-02-15T09:58:35.541Z,5.22
2019-02-15T10:01:05.328Z,5.58
2019-02-15T10:03:34.941Z,6.08
2019-02-15T10:06:04.562Z,6.37
2019-02-15T10:08:34.237Z,6.22
2019-02-15T10:11:03.847Z,6.10
2019-02-15T10:13:33.634Z,6.16
2019-02-15T10:16:03.288Z,6.16
2019-02-15T10:18:32.967Z,6.14
2019-02-15T10:21:02.617Z,6.30
2019-02-15T10:23:32.297Z,6.43
2019-02-15T10:26:01.924Z,6.39
2019-02-15T10:28:31.525Z,6.36
2019-02-15T10:31:01.164Z,6.31
2019-02-15T10:33:30.778Z,6.33
2019-02-15T10:36:00.409Z,6.40
2019-02-15T10:38:30.059Z,6.42
2019-02-15T10:40:59.663Z,6.58
2019-02-15T10:43:29.329Z,6.83
2019-02-15T10:45:58.990Z,6.82
2019-02-15T10:48:28.594Z,6.92
2019-02-15T10:50:58.211Z,6.89
2019-02-15T10:53:27.888Z,7.04
2019-02-15T10:55:57.508Z,7.31
2019-02-15T10:58:27.144Z,7.84
2019-02-15T11:00:56.818Z,8.40
2019-02-15T11:03:37.357Z,8.38
2019-02-15T11:06:07.026Z,8.34
2019-02-15T11:08:36.645Z,8.45
2019-02-15T11:11:06.254Z,8.60
2019-02-15T11:13:35.934Z,8.31
2019-02-15T11:16:05.614Z,8.76
2019-02-15T11:18:35.291Z,8.96
2019-02-15T11:21:04.927Z,8.87
2019-02-15T11:23:34.548Z,9.96
2019-02-15T11:26:04.657Z,10.31
2019-02-15T11:28:35.566Z,10.17
2019-02-15T11:31:05.662Z,9.90
2019-02-15T11:33:35.255Z,9.85
2019-02-15T11:36:04.918Z,10.00
2019-02-15T11:38:34.526Z,9.80
2019-02-15T11:41:10.916Z,9.34
2019-02-15T11:43:35.493Z,9.81
2019-02-15T11:46:05.100Z,9.86
2019-02-15T11:48:34.746Z,10.29
2019-02-15T11:55:03.018Z,9.35
2019-02-15T11:57:32.658Z,9.48
2019-02-15T12:00:02.250Z,9.68
2019-02-15T12:02:31.902Z,9.57
2019-02-15T12:05:01.494Z,9.25
2019-02-15T12:07:31.088Z,9.48
2019-02-15T12:10:00.734Z,9.40
2019-02-15T12:12:30.330Z,9.09
2019-02-15T12:14:59.933Z,9.58
2019-02-15T12:17:29.630Z,9.38
2019-02-15T12:20:54.908Z,9.21
2019-02-15T12:23:24.548Z,9.04
2019-02-15T12:25:54.167Z,9.09
2019-02-15T12:28:23.759Z,8.75
2019-02-15T12:30:53.406Z,8.53
2019-02-15T12:33:23.000Z,9.13
2019-02-15T12:35:52.577Z,9.29
2019-02-15T12:38:22.187Z,8.31
2019-02-15T12:40:51.780Z,8.41
2019-02-15T12:43:21.386Z,8.37
2019-02-15T12:45:51.033Z,7.85
2019-02-15T12:51:29.428Z,7.55
2019-02-15T12:53:59.021Z,7.26
2019-02-15T12:56:28.673Z,7.41
2019-02-15T12:58:58.297Z,7.51
2019-02-15T13:01:27.892Z,7.03
2019-02-15T13:03:57.508Z,6.93
2019-02-15T13:06:28.882Z,7.00
2019-02-15T13:08:58.493Z,7.14
2019-02-15T13:11:28.461Z,6.92
2019-02-15T13:13:58.102Z,6.87
2019-02-15T13:16:27.711Z,7.02
2019-02-15T13:18:57.294Z,6.94
2019-02-15T13:21:26.947Z,7.27
2019-02-15T13:23:56.581Z,6.94
2019-02-15T13:26:26.389Z,6.98
2019-02-15T13:28:56.030Z,7.14
2019-02-15T13:31:25.628Z,6.95
2019-02-15T13:33:57.086Z,7.15
2019-02-15T13:36:26.620Z,7.02
2019-02-15T13:38:56.259Z,7.29
2019-02-15T13:41:25.887Z,7.38
2019-02-15T13:43:55.545Z,7.36
2019-02-15T13:46:25.149Z,7.42
2019-02-15T13:48:54.761Z,7.42
2019-02-15T13:51:24.439Z,7.53
2019-02-15T13:53:54.114Z,7.69
2019-02-15T13:56:23.715Z,7.67
2019-02-15T13:58:53.368Z,7.47
2019-02-15T14:01:23.041Z,7.27
2019-02-15T14:03:52.643Z,7.23
2019-02-15T14:06:22.303Z,7.27
2019-02-15T14:08:51.964Z,7.29
2019-02-15T14:11:21.578Z,7.23
2019-02-15T14:13:51.218Z,7.16
2019-02-15T14:16:20.820Z,7.33
2019-02-15T14:18:50.467Z,7.49
2019-02-15T14:21:20.143Z,7.14
2019-02-15T14:23:49.754Z,7.33
2019-02-15T14:26:19.372Z,7.53
2019-02-15T14:28:49.025Z,7.38
2019-02-15T14:31:18.641Z,7.33
2019-02-15T14:33:48.283Z,7.28
2019-02-15T14:36:17.907Z,7.05
2019-02-15T14:38:47.507Z,7.30
2019-02-15T14:41:17.105Z,7.49
2019-02-15T14:43:46.728Z,7.53
2019-02-15T14:46:16.432Z,7.73
2019-02-15T14:48:46.073Z,7.65
2019-02-15T14:51:15.720Z,7.66
2019-02-15T14:53:45.320Z,7.41
2019-02-15T14:56:14.963Z,6.72
2019-02-15T14:58:44.617Z,6.97
2019-02-15T15:01:14.199Z,7.36
2019-02-15T15:03:43.826Z,7.07
2019-02-15T15:06:13.494Z,7.12
2019-02-15T15:08:43.102Z,6.76
2019-02-15T15:11:12.702Z,6.84
2019-02-15T15:13:42.352Z,6.86
2019-02-15T15:16:11.967Z,7.18
2019-02-15T15:18:54.693Z,6.99
2019-02-15T15:21:24.369Z,6.84
2019-02-15T15:23:54.011Z,6.96
2019-02-15T15:26:23.703Z,6.47
2019-02-15T15:28:53.306Z,6.89
2019-02-15T15:31:23.015Z,6.86
2019-02-15T15:33:52.672Z,6.62
2019-02-15T15:36:22.231Z,6.74
2019-02-15T15:38:51.820Z,6.21
2019-02-15T15:44:49.217Z,7.20
2019-02-15T15:47:18.932Z,6.57
2019-02-15T15:49:48.613Z,6.34
2019-02-15T15:52:18.227Z,6.18
2019-02-15T15:54:48.091Z,6.16
2019-02-15T15:57:17.673Z,6.05
2019-02-15T15:59:47.282Z,5.78
2019-02-15T16:02:18.498Z,5.67
2019-02-15T16:04:48.283Z,5.43
2019-02-15T16:07:17.899Z,5.34
2019-02-15T16:09:47.571Z,5.14
2019-02-15T16:12:17.168Z,4.97
2019-02-15T16:14:46.738Z,4.92
2019-02-15T16:17:16.376Z,4.92
2019-02-15T16:19:49.215Z,4.70
2019-02-15T16:22:17.431Z,4.62
2019-02-15T16:24:47.132Z,4.59
2019-02-15T16:27:16.732Z,4.56
2019-02-15T16:29:46.336Z,4.70
2019-02-15T16:32:15.986Z,4.70
2019-02-15T16:34:45.624Z,5.10
2019-02-15T16:37:15.226Z,5.09
2019-02-15T16:39:44.973Z,5.08
2019-02-15T16:42:14.859Z,5.35
2019-02-15T16:44:44.511Z,5.23
2019-02-15T16:47:14.170Z,5.49
2019-02-15T16:49:43.784Z,5.62
2019-02-15T16:52:13.402Z,5.64
2019-02-15T16:54:43.056Z,5.90
2019-02-15T16:57:12.667Z,6.10
2019-02-15T16:59:42.304Z,6.05
2019-02-15T17:02:12.007Z,6.10
2019-02-15T17:04:41.571Z,6.15
2019-02-15T17:07:11.163Z,6.07
2019-02-15T17:09:40.913Z,5.73
2019-02-15T17:12:10.602Z,5.84
2019-02-15T17:14:40.216Z,6.09
2019-02-15T17:17:09.991Z,6.08
2019-02-15T17:19:39.710Z,5.60
2019-02-15T17:22:09.321Z,5.59
2019-02-15T17:24:58.050Z,5.81
2019-02-15T17:27:27.665Z,5.60
2019-02-15T17:29:57.396Z,6.07
2019-02-15T17:32:27.258Z,5.83
2019-02-15T17:34:56.893Z,5.94
2019-02-15T17:37:26.539Z,5.79
2019-02-15T17:39:56.256Z,6.11
2019-02-15T17:42:25.976Z,6.03
2019-02-15T17:44:55.584Z,6.06
2019-02-15T17:47:25.308Z,5.85
2019-02-15T17:49:54.884Z,6.14
2019-02-15T17:52:24.506Z,5.89
2019-02-15T17:54:54.148Z,5.49
2019-02-15T17:57:44.348Z,5.72
2019-02-15T18:00:14.344Z,5.86
2019-02-15T18:02:43.950Z,5.66
2019-02-15T18:05:32.487Z,5.69
2019-02-15T18:08:02.451Z,5.61
2019-02-15T18:10:32.090Z,5.65
2019-02-15T18:13:01.804Z,5.59
2019-02-15T18:15:31.501Z,5.63
2019-02-15T18:18:01.108Z,5.62
2019-02-15T18:20:30.811Z,5.42
2019-02-15T18:23:00.454Z,5.61
2019-02-15T18:25:30.086Z,5.73
2019-02-15T18:27:59.721Z,5.58
2019-02-15T18:30:29.364Z,6.14
2019-02-15T18:32:58.993Z,6.24
2019-02-15T18:35:28.650Z,6.66
2019-02-15T18:37:58.270Z,6.52
2019-02-15T18:40:27.939Z,6.49
2019-02-15T18:42:57.580Z,6.85
2019-02-15T18:45:27.295Z,6.92
2019-02-15T18:47:56.962Z,7.01
2019-02-15T18:50:26.638Z,6.65
2019-02-15T18:52:56.333Z,6.37
2019-02-15T18:55:25.962Z,6.34
2019-02-15T18:57:55.603Z,6.41
2019-02-15T19:00:25.241Z,6.65
2019-02-15T19:02:54.879Z,6.42
2019-02-15T19:05:24.571Z,6.20
2019-02-15T19:07:54.187Z,6.44
2019-02-15T19:10:23.826Z,6.73
2019-02-15T19:12:53.577Z,6.73
2019-02-15T19:15:23.153Z,6.77
2019-02-15T19:17:52.786Z,6.79
2019-02-15T19:20:22.594Z,7.01
2019-02-15T19:22:52.253Z,7.20
2019-02-15T19:25:21.955Z,7.23
2019-02-15T19:27:51.591Z,7.14
2019-02-15T19:30:42.588Z,7.23
2019-02-15T19:33:12.193Z,7.36
2019-02-15T19:35:41.852Z,7.43
2019-02-15T19:38:11.491Z,7.25
2019-02-15T19:40:41.106Z,7.24
2019-02-15T19:43:10.862Z,7.09
2019-02-15T19:45:40.473Z,7.16
2019-02-15T19:48:10.204Z,7.24
2019-02-15T19:50:39.840Z,7.32
2019-02-15T19:53:09.452Z,7.36
2019-02-15T19:55:39.122Z,7.43
2019-02-15T19:58:08.865Z,7.42
2019-02-15T20:00:38.620Z,7.43
2019-02-15T20:03:08.261Z,7.38
2019-02-15T20:05:37.919Z,7.61
2019-02-15T20:08:07.586Z,7.79
2019-02-15T20:10:37.242Z,7.82
2019-02-15T20:13:06.492Z,7.77
2019-02-15T20:15:36.079Z,7.72
2019-02-15T20:18:05.765Z,7.80
2019-02-15T20:20:35.389Z,7.65
2019-02-15T20:23:05.055Z,7.89
2019-02-15T20:25:34.712Z,7.85
2019-02-15T20:28:13.286Z,7.84
2019-02-15T20:30:35.710Z,7.76
2019-02-15T20:33:05.326Z,7.79
2019-02-15T20:35:34.979Z,7.78
2019-02-15T20:38:04.707Z,7.48
2019-02-15T20:40:34.328Z,7.38
2019-02-15T20:43:03.982Z,7.32
2019-02-15T20:45:33.664Z,7.15
2019-02-15T20:48:03.251Z,7.18
2019-02-15T20:50:32.838Z,7.21
2019-02-15T20:53:02.492Z,7.20
2019-02-15T20:55:32.121Z,7.36
2019-02-15T20:58:01.756Z,7.36
2019-02-15T21:00:31.405Z,7.38
2019-02-15T21:03:01.038Z,7.31
2019-02-15T21:05:30.690Z,7.41
2019-02-15T21:08:00.327Z,7.36
2019-02-15T21:10:29.955Z,7.42
2019-02-15T21:12:59.627Z,7.42
2019-02-15T21:15:29.199Z,7.44
2019-02-15T21:17:58.816Z,7.15
2019-02-15T21:20:28.471Z,7.21
2019-02-15T21:22:58.083Z,7.32
2019-02-15T21:25:27.886Z,7.37
2019-02-15T21:27:57.524Z,7.41
2019-02-15T21:30:27.243Z,7.48
2019-02-15T21:32:56.886Z,7.23
2019-02-15T21:35:26.916Z,7.41
2019-02-15T21:37:56.540Z,7.36
2019-02-15T21:40:26.222Z,7.21
2019-02-15T21:42:55.878Z,7.10
2019-02-15T21:45:25.542Z,7.09
2019-02-15T21:47:55.705Z,7.31
2019-02-15T21:53:53.091Z,7.24
2019-02-15T21:56:22.748Z,7.03
2019-02-15T21:58:52.351Z,6.92
2019-02-15T22:01:21.999Z,6.93
2019-02-15T22:03:51.693Z,7.02
2019-02-15T22:06:21.345Z,7.09
2019-02-15T22:08:50.941Z,7.17
2019-02-15T22:11:20.515Z,7.07
2019-02-15T22:13:50.177Z,6.99
2019-02-15T22:16:19.828Z,7.05
2019-02-15T22:18:49.471Z,7.16
2019-02-15T22:21:19.040Z,7.15
2019-02-15T22:23:48.637Z,6.97
2019-02-15T22:26:18.273Z,7.08
2019-02-15T22:28:48.085Z,7.12
2019-02-15T22:31:17.639Z,7.29
2019-02-15T22:33:47.368Z,7.44
2019-02-15T22:36:17.002Z,7.58
2019-02-15T22:38:46.622Z,7.51
2019-02-15T22:41:17.797Z,7.48
2019-02-15T22:43:47.567Z,7.62
2019-02-15T22:46:17.211Z,7.46
2019-02-15T22:48:46.917Z,7.66
2019-02-15T22:51:16.561Z,7.72
2019-02-15T22:53:46.177Z,7.64
2019-02-15T22:56:15.808Z,7.80
2019-02-15T22:58:45.436Z,7.57
2019-02-15T23:01:24.028Z,7.68
2019-02-15T23:03:53.673Z,7.79
2019-02-15T23:06:23.300Z,7.70
2019-02-15T23:08:52.901Z,7.65
2019-02-15T23:11:22.608Z,7.58
2019-02-15T23:13:52.204Z,7.66
2019-02-15T23:16:21.803Z,7.61
2019-02-15T23:18:51.440Z,7.61
2019-02-15T23:21:21.056Z,7.52
2019-02-15T23:23:50.688Z,7.42
2019-02-15T23:26:20.323Z,7.30
2019-02-15T23:28:49.922Z,7.35
2019-02-15T23:31:19.497Z,7.32
2019-02-15T23:33:49.172Z,7.47
2019-02-15T23:36:18.808Z,7.35
2019-02-15T23:38:48.382Z,7.20
2019-02-15T23:41:18.032Z,7.05
2019-02-15T23:43:47.723Z,6.76
2019-02-15T23:46:17.379Z,6.73
2019-02-15T23:48:47.059Z,6.62
2019-02-15T23:51:16.690Z,6.48
2019-02-15T23:53:46.286Z,6.55
2019-02-15T23:56:15.907Z,6.52
2019-02-15T23:58:45.479Z,6.59
